createdAt,value
2017-12-22T00:01:00.950Z,99968.12
2017-12-22T00:03:28.411Z,99962.91
2017-12-22T00:05:55.852Z,99958.62
2017-12-22T00:08:23.610Z,99951.28
2017-12-22T00:10:51.065Z,99950.89
2017-12-22T00:13:18.517Z,99948.69
2017-12-22T00:15:47.246Z,99943.58
2017-12-22T00:18:14.704Z,99954.31
2017-12-22T00:20:42.153Z,99950.44
2017-12-22T00:23:09.932Z,99950.88
2017-12-22T00:25:37.388Z,99955.58
2017-12-22T00:28:07.397Z,99950.42
2017-12-22T00:30:35.204Z,99953.80
2017-12-22T00:33:02.670Z,99951.28
2017-12-22T00:35:30.145Z,99947.83
2017-12-22T00:37:57.773Z,99950.41
2017-12-22T00:40:25.225Z,99953.44
2017-12-22T00:42:52.700Z,99950.00
2017-12-22T00:45:20.444Z,99952.55
2017-12-22T00:47:47.899Z,99950.92
2017-12-22T00:50:15.357Z,99951.41
2017-12-22T00:52:43.175Z,99943.57
2017-12-22T00:55:10.642Z,99953.52
2017-12-22T00:57:38.102Z,99953.50
2017-12-22T01:00:05.828Z,99951.81
2017-12-22T01:02:33.297Z,99949.14
2017-12-22T01:05:00.754Z,99944.39
2017-12-22T01:07:29.431Z,99949.52
2017-12-22T01:09:56.896Z,99951.23
2017-12-22T01:12:24.357Z,99950.77
2017-12-22T01:14:52.126Z,99952.47
2017-12-22T01:17:25.214Z,99954.55
2017-12-22T01:19:52.698Z,99947.17
2017-12-22T01:22:20.636Z,99942.82
2017-12-22T01:24:48.106Z,99946.30
2017-12-22T01:27:15.567Z,99951.41
2017-12-22T01:29:44.253Z,99941.38
2017-12-22T01:32:11.721Z,99948.73
2017-12-22T01:34:39.189Z,99944.80
2017-12-22T01:37:08.231Z,99952.09
2017-12-22T01:39:35.693Z,99955.16
2017-12-22T01:42:03.144Z,99952.97
2017-12-22T01:44:30.858Z,99953.83
2017-12-22T01:46:58.329Z,99961.24
2017-12-22T01:49:25.785Z,99961.62
2017-12-22T01:51:53.529Z,99961.62
2017-12-22T01:54:20.985Z,99954.23
2017-12-22T01:56:48.445Z,99953.73
2017-12-22T01:59:16.230Z,99946.97
2017-12-22T02:01:43.682Z,99955.09
2017-12-22T02:04:11.141Z,99958.93
2017-12-22T02:06:38.907Z,99958.06
2017-12-22T02:09:06.357Z,99956.23
2017-12-22T02:11:33.810Z,99952.44
2017-12-22T02:14:01.592Z,99955.34
2017-12-22T02:16:29.059Z,99946.18
2017-12-22T02:18:56.522Z,99957.09
2017-12-22T02:21:24.245Z,99960.93
2017-12-22T02:23:51.717Z,99958.90
2017-12-22T02:26:19.186Z,99959.66
2017-12-22T02:28:46.973Z,99954.97
2017-12-22T02:31:14.809Z,99958.19
2017-12-22T02:33:42.265Z,99960.32
2017-12-22T02:36:10.139Z,99958.56
2017-12-22T02:38:37.599Z,99962.86
2017-12-22T02:41:05.057Z,99960.66
2017-12-22T02:43:32.958Z,99951.57
2017-12-22T02:46:00.414Z,99954.07
2017-12-22T02:48:27.863Z,99957.91
2017-12-22T02:50:55.657Z,99952.67
2017-12-22T02:53:23.121Z,99950.11
2017-12-22T02:55:50.569Z,99943.15
2017-12-22T02:58:18.338Z,99944.08
2017-12-22T03:00:45.797Z,99944.41
2017-12-22T03:03:13.253Z,99944.41
2017-12-22T03:05:40.969Z,99940.98
2017-12-22T03:08:08.434Z,99934.52
2017-12-22T03:10:35.904Z,99943.28
2017-12-22T03:13:03.784Z,99933.30
2017-12-22T03:15:31.244Z,99933.77
2017-12-22T03:17:58.696Z,99931.13
2017-12-22T03:20:26.704Z,99934.59
2017-12-22T03:22:54.165Z,99938.09
2017-12-22T03:25:21.621Z,99941.52
2017-12-22T03:27:49.689Z,99936.72
2017-12-22T03:30:17.145Z,99942.78
2017-12-22T03:32:45.300Z,99934.99
2017-12-22T03:35:13.310Z,99938.02
2017-12-22T03:37:40.761Z,99930.27
2017-12-22T03:40:08.233Z,99930.27
2017-12-22T03:42:35.869Z,99930.20
2017-12-22T03:45:03.808Z,99931.53
2017-12-22T03:47:31.277Z,99925.00
2017-12-22T03:49:59.293Z,99919.38
2017-12-22T03:52:26.757Z,99918.47
2017-12-22T03:54:54.220Z,99913.71
2017-12-22T03:57:22.529Z,99917.64
2017-12-22T03:59:50.000Z,99919.41
2017-12-22T04:02:17.462Z,99910.82
2017-12-22T04:04:45.286Z,99907.32
2017-12-22T04:07:12.745Z,99909.13
2017-12-22T04:09:40.204Z,99908.69
2017-12-22T04:12:07.972Z,99903.06
2017-12-22T04:14:35.434Z,99904.86
2017-12-22T04:17:03.243Z,99892.28
2017-12-22T04:19:30.961Z,99894.55
2017-12-22T04:21:58.412Z,99894.05
2017-12-22T04:24:25.867Z,99896.20
2017-12-22T04:26:53.958Z,99894.98
2017-12-22T04:29:21.415Z,99890.58
2017-12-22T04:31:48.878Z,99886.22
2017-12-22T04:34:17.957Z,99887.52
2017-12-22T04:36:45.414Z,99882.76
2017-12-22T04:39:12.877Z,99883.19
2017-12-22T04:41:40.692Z,99884.89
2017-12-22T04:44:08.137Z,99885.82
2017-12-22T04:46:35.597Z,99877.09
2017-12-22T04:49:03.561Z,99872.80
2017-12-22T04:51:31.021Z,99876.20
2017-12-22T04:53:58.481Z,99868.44
2017-12-22T04:56:26.545Z,99872.63
2017-12-22T04:58:54.014Z,99866.52
2017-12-22T05:01:21.468Z,99867.90
2017-12-22T05:03:49.241Z,99863.06
2017-12-22T05:06:16.694Z,99868.50
2017-12-22T05:08:44.161Z,99860.66
2017-12-22T05:11:11.913Z,99864.48
2017-12-22T05:13:39.365Z,99860.58
2017-12-22T05:16:06.826Z,99857.59
2017-12-22T05:18:34.609Z,99854.13
2017-12-22T05:21:02.064Z,99858.50
2017-12-22T05:23:29.527Z,99859.41
2017-12-22T05:25:57.481Z,99862.55
2017-12-22T05:35:08.425Z,99861.01
2017-12-22T05:37:35.881Z,99856.21
2017-12-22T05:40:03.329Z,99866.16
2017-12-22T05:42:31.109Z,99860.89
2017-12-22T05:44:58.564Z,99865.94
2017-12-22T05:47:26.020Z,99862.94
2017-12-22T05:49:53.813Z,99864.56
2017-12-22T05:52:21.271Z,99855.50
2017-12-22T05:54:48.734Z,99854.64
2017-12-22T05:57:16.505Z,99863.73
2017-12-22T05:59:43.966Z,99873.53
2017-12-22T06:02:11.421Z,99871.36
2017-12-22T06:04:39.190Z,99875.77
2017-12-22T06:07:06.642Z,99874.83
2017-12-22T06:09:34.109Z,99866.61
2017-12-22T06:12:01.861Z,99881.80
2017-12-22T06:14:29.312Z,99876.28
2017-12-22T06:16:56.759Z,99876.13
2017-12-22T06:19:24.546Z,99876.56
2017-12-22T06:21:52.001Z,99879.05
2017-12-22T06:24:19.460Z,99879.05
2017-12-22T06:26:47.549Z,99878.17
2017-12-22T06:29:15.013Z,99879.16
2017-12-22T06:31:42.475Z,99876.52
2017-12-22T06:34:10.224Z,99874.75
2017-12-22T06:36:38.380Z,99873.88
2017-12-22T06:39:05.829Z,99870.30
2017-12-22T06:41:33.660Z,99872.85
2017-12-22T06:44:01.113Z,99874.55
2017-12-22T06:46:28.566Z,99879.70
2017-12-22T06:48:56.516Z,99881.86
2017-12-22T06:51:23.971Z,99874.45
2017-12-22T06:53:51.425Z,99880.65
2017-12-22T06:56:19.094Z,99878.01
2017-12-22T06:58:46.549Z,99877.10
2017-12-22T07:01:14.014Z,99879.30
2017-12-22T07:03:41.920Z,99883.56
2017-12-22T07:06:09.390Z,99882.73
2017-12-22T07:08:36.992Z,99881.95
2017-12-22T07:11:04.902Z,99877.53
2017-12-22T07:13:32.362Z,99882.77
2017-12-22T07:15:59.827Z,99875.41
2017-12-22T07:18:27.588Z,99879.27
2017-12-22T07:20:55.052Z,99872.89
2017-12-22T07:23:22.516Z,99880.61
2017-12-22T07:25:50.269Z,99886.24
2017-12-22T07:28:17.734Z,99886.11
2017-12-22T07:30:45.204Z,99890.97
2017-12-22T07:33:12.965Z,99888.49
2017-12-22T07:35:40.425Z,99887.19
2017-12-22T07:38:07.965Z,99886.28
2017-12-22T07:40:35.681Z,99866.88
2017-12-22T07:43:03.146Z,99884.34
2017-12-22T07:45:30.610Z,99883.42
2017-12-22T07:47:58.660Z,99886.12
2017-12-22T07:50:26.121Z,99887.37
2017-12-22T07:52:53.586Z,99885.16
2017-12-22T07:55:21.548Z,99898.24
2017-12-22T07:57:49.009Z,99896.08
2017-12-22T08:00:16.468Z,99899.11
2017-12-22T08:02:44.280Z,99900.45
2017-12-22T08:05:11.741Z,99898.29
2017-12-22T08:07:39.223Z,99894.03
2017-12-22T08:10:07.005Z,99894.22
2017-12-22T08:12:34.461Z,99894.13
2017-12-22T08:15:02.409Z,99893.22
2017-12-22T08:17:30.022Z,99891.48
2017-12-22T08:19:57.475Z,99894.72
2017-12-22T08:22:24.950Z,99900.45
2017-12-22T08:24:52.993Z,99901.42
2017-12-22T08:27:20.462Z,99898.78
2017-12-22T08:29:47.929Z,99898.45
2017-12-22T08:32:16.007Z,99900.95
2017-12-22T08:34:43.473Z,99903.64
2017-12-22T08:37:10.939Z,99908.37
2017-12-22T08:39:39.621Z,99900.84
2017-12-22T08:42:07.084Z,99904.08
2017-12-22T08:44:34.542Z,99902.24
2017-12-22T08:47:02.289Z,99906.15
2017-12-22T08:49:29.777Z,99905.28
2017-12-22T08:51:57.248Z,99910.39
2017-12-22T08:54:24.881Z,99901.29
2017-12-22T08:56:52.340Z,99907.74
2017-12-22T08:59:19.802Z,99907.69
2017-12-22T09:01:47.666Z,99909.53
2017-12-22T09:04:15.117Z,99909.28
2017-12-22T09:06:42.576Z,99913.95
2017-12-22T09:09:10.337Z,99907.11
2017-12-22T09:11:38.302Z,99904.52
2017-12-22T09:14:05.755Z,99896.45
2017-12-22T09:16:33.963Z,99902.00
2017-12-22T09:19:01.454Z,99897.27
2017-12-22T09:21:28.904Z,99895.06
2017-12-22T09:23:56.974Z,99890.34
2017-12-22T09:26:24.433Z,99901.09
2017-12-22T09:28:52.603Z,99892.81
2017-12-22T09:31:20.570Z,99891.36
2017-12-22T09:33:48.020Z,99892.75
2017-12-22T09:36:15.481Z,99884.70
2017-12-22T09:38:43.272Z,99882.64
2017-12-22T09:41:11.458Z,99887.20
2017-12-22T09:43:38.938Z,99876.37
2017-12-22T09:46:06.822Z,99871.98
2017-12-22T09:48:34.360Z,99866.33
2017-12-22T09:51:01.878Z,99857.72
2017-12-22T09:53:30.167Z,99850.61
2017-12-22T09:55:57.628Z,99841.56
2017-12-22T09:58:25.139Z,99842.38
2017-12-22T10:00:52.846Z,99838.04
2017-12-22T10:03:20.306Z,99839.72
2017-12-22T10:05:47.781Z,99836.45
2017-12-22T10:08:15.834Z,99835.16
2017-12-22T10:10:43.293Z,99829.41
2017-12-22T10:13:10.748Z,99833.27
2017-12-22T10:15:38.550Z,99834.02
2017-12-22T10:18:06.008Z,99831.74
2017-12-22T10:20:33.472Z,99834.73
2017-12-22T10:23:01.106Z,99828.91
2017-12-22T10:25:28.557Z,99827.13
2017-12-22T10:27:56.028Z,99827.38
2017-12-22T10:30:24.043Z,99825.01
2017-12-22T10:32:51.507Z,99824.16
2017-12-22T10:35:19.176Z,99819.98
2017-12-22T10:37:46.893Z,99822.16
2017-12-22T10:40:14.344Z,99823.04
2017-12-22T10:42:42.193Z,99826.17
2017-12-22T10:45:10.373Z,99818.23
2017-12-22T10:47:38.009Z,99818.52
2017-12-22T10:50:05.470Z,99820.33
2017-12-22T10:52:33.203Z,99821.37
2017-12-22T10:55:00.660Z,99819.63
2017-12-22T10:57:28.225Z,99812.49
2017-12-22T10:59:55.865Z,99811.49
2017-12-22T11:02:23.325Z,99795.06
2017-12-22T11:04:50.777Z,99792.70
2017-12-22T11:07:18.555Z,99790.59
2017-12-22T11:09:46.019Z,99787.41
2017-12-22T11:12:13.487Z,99790.09
2017-12-22T11:14:41.274Z,99779.23
2017-12-22T11:17:09.503Z,99782.44
2017-12-22T11:19:36.964Z,99783.38
2017-12-22T11:22:04.808Z,99777.86
2017-12-22T11:24:32.325Z,99776.86
2017-12-22T11:27:00.136Z,99775.86
2017-12-22T11:29:28.162Z,99773.14
2017-12-22T11:31:55.620Z,99777.83
2017-12-22T11:34:23.082Z,99771.52
2017-12-22T11:36:51.156Z,99767.11
2017-12-22T11:39:18.619Z,99768.03
2017-12-22T11:41:46.072Z,99772.16
2017-12-22T11:44:13.867Z,99765.59
2017-12-22T11:46:41.358Z,99763.33
2017-12-22T11:49:08.819Z,99765.02
2017-12-22T11:51:36.842Z,99765.25
2017-12-22T11:54:04.317Z,99755.66
2017-12-22T11:56:31.785Z,99762.98
2017-12-22T11:58:59.519Z,99768.19
2017-12-22T12:01:26.985Z,99761.09
2017-12-22T12:03:54.445Z,99758.50
2017-12-22T12:06:22.261Z,99755.95
2017-12-22T12:08:49.716Z,99748.93
2017-12-22T12:11:17.176Z,99747.78
2017-12-22T12:13:44.904Z,99744.63
2017-12-22T12:16:12.366Z,99741.27
2017-12-22T12:18:39.825Z,99738.54
2017-12-22T12:21:07.581Z,99731.73
2017-12-22T12:23:35.037Z,99735.94
2017-12-22T12:26:02.497Z,99738.62
2017-12-22T12:28:30.270Z,99735.86
2017-12-22T12:30:57.739Z,99732.16
2017-12-22T12:33:25.220Z,99719.50
2017-12-22T12:35:52.961Z,99724.92
2017-12-22T12:38:20.420Z,99721.94
2017-12-22T12:40:47.887Z,99714.05
2017-12-22T12:43:16.015Z,99715.56
2017-12-22T12:45:43.991Z,99715.91
2017-12-22T12:48:11.454Z,99723.02
2017-12-22T12:50:39.214Z,99723.05
2017-12-22T12:53:06.672Z,99716.49
2017-12-22T12:55:34.129Z,99712.88
2017-12-22T12:58:01.940Z,99722.11
2017-12-22T13:00:29.393Z,99723.76
2017-12-22T13:02:56.850Z,99730.62
2017-12-22T13:05:24.943Z,99728.23
2017-12-22T13:07:52.402Z,99731.63
2017-12-22T13:10:19.863Z,99734.27
2017-12-22T13:12:47.492Z,99730.36
2017-12-22T13:15:14.944Z,99738.23
2017-12-22T13:17:42.409Z,99726.94
2017-12-22T13:20:10.315Z,99736.88
2017-12-22T13:22:37.816Z,99739.39
2017-12-22T13:25:05.562Z,99740.86
2017-12-22T13:27:33.311Z,99737.82
2017-12-22T13:30:00.765Z,99744.05
2017-12-22T13:32:28.233Z,99739.52
2017-12-22T13:34:55.956Z,99741.80
2017-12-22T13:37:23.415Z,99738.88
2017-12-22T13:39:50.882Z,99744.98
2017-12-22T13:42:18.685Z,99745.35
2017-12-22T13:44:46.187Z,99750.50
2017-12-22T13:47:16.450Z,99746.58
2017-12-22T13:49:44.186Z,99745.04
2017-12-22T13:52:11.637Z,99745.80
2017-12-22T13:54:39.364Z,99742.14
2017-12-22T13:57:06.972Z,99732.00
2017-12-22T13:59:34.443Z,99729.85
2017-12-22T14:02:01.910Z,99731.59
2017-12-22T14:04:29.820Z,99731.59
2017-12-22T14:06:57.273Z,99736.77
2017-12-22T14:09:24.733Z,99734.05
2017-12-22T14:11:52.572Z,99735.63
2017-12-22T14:14:20.042Z,99735.27
2017-12-22T14:16:47.498Z,99733.84
2017-12-22T14:19:15.505Z,99738.16
2017-12-22T14:21:43.432Z,99731.29
2017-12-22T14:24:10.877Z,99736.58
2017-12-22T14:26:38.790Z,99738.75
2017-12-22T14:29:06.250Z,99741.48
2017-12-22T14:31:33.701Z,99737.44
2017-12-22T14:34:01.518Z,99744.92
2017-12-22T14:36:28.954Z,99740.77
2017-12-22T14:38:56.420Z,99741.02
2017-12-22T14:41:24.159Z,99740.58
2017-12-22T14:43:51.614Z,99738.68
2017-12-22T14:46:19.077Z,99739.98
2017-12-22T14:48:47.461Z,99747.64
2017-12-22T14:51:14.913Z,99736.76
2017-12-22T14:53:42.369Z,99736.39
2017-12-22T14:56:10.160Z,99734.22
2017-12-22T14:58:37.621Z,99730.77
2017-12-22T15:01:05.097Z,99734.72
2017-12-22T15:03:32.819Z,99725.55
2017-12-22T15:06:00.289Z,99728.97
2017-12-22T15:08:27.756Z,99728.44
2017-12-22T15:10:55.532Z,99734.24
2017-12-22T15:13:23.004Z,99731.25
2017-12-22T15:15:50.457Z,99734.73
2017-12-22T15:18:18.224Z,99735.98
2017-12-22T15:20:46.040Z,99736.58
2017-12-22T15:23:13.494Z,99736.72
2017-12-22T15:25:41.515Z,99723.91
2017-12-22T15:28:08.969Z,99728.67
2017-12-22T15:30:36.429Z,99728.23
2017-12-22T15:33:04.203Z,99730.74
2017-12-22T15:35:32.019Z,99739.12
2017-12-22T15:37:59.479Z,99735.19
2017-12-22T15:40:27.193Z,99737.43
2017-12-22T15:42:54.649Z,99733.88
2017-12-22T15:45:22.101Z,99733.88
2017-12-22T15:47:49.842Z,99742.73
2017-12-22T15:50:18.037Z,99737.95
2017-12-22T15:52:45.509Z,99730.69
2017-12-22T15:55:13.385Z,99740.83
2017-12-22T15:57:40.840Z,99749.37
2017-12-22T16:00:08.293Z,99745.53
2017-12-22T16:02:36.192Z,99737.72
2017-12-22T16:05:03.704Z,99746.70
2017-12-22T16:07:32.130Z,99748.39
2017-12-22T16:10:00.105Z,99736.39
2017-12-22T16:12:27.560Z,99730.98
2017-12-22T16:14:55.027Z,99728.17
2017-12-22T16:17:23.393Z,99730.32
2017-12-22T16:19:50.866Z,99734.70
2017-12-22T16:22:18.329Z,99748.67
2017-12-22T16:24:46.082Z,99751.74
2017-12-22T16:27:13.545Z,99753.62
2017-12-22T16:29:41.010Z,99754.14
2017-12-22T16:32:08.777Z,99760.84
2017-12-22T16:34:36.252Z,99766.39
2017-12-22T16:37:03.728Z,99772.75
2017-12-22T16:39:31.677Z,99765.72
2017-12-22T16:41:59.141Z,99766.23
2017-12-22T16:44:26.597Z,99775.28
2017-12-22T16:46:54.462Z,99764.22
2017-12-22T16:49:21.920Z,99762.33
2017-12-22T16:51:50.066Z,99764.05
2017-12-22T16:54:18.061Z,99764.77
2017-12-22T16:56:45.528Z,99764.58
2017-12-22T16:59:12.997Z,99772.77
2017-12-22T17:01:41.357Z,99785.55
2017-12-22T17:04:08.829Z,99781.22
2017-12-22T17:06:36.286Z,99776.32
2017-12-22T17:09:04.372Z,99765.08
2017-12-22T17:11:31.838Z,99757.13
2017-12-22T17:13:59.297Z,99740.45
2017-12-22T17:16:27.054Z,99751.48
2017-12-22T17:18:54.513Z,99757.27
2017-12-22T17:21:21.973Z,99757.40
2017-12-22T17:23:49.731Z,99761.81
2017-12-22T17:26:17.185Z,99768.30
2017-12-22T17:28:44.644Z,99770.16
2017-12-22T17:31:12.418Z,99772.84
2017-12-22T17:33:39.880Z,99775.45
2017-12-22T17:36:07.341Z,99784.46
2017-12-22T17:38:35.424Z,99781.19
2017-12-22T17:41:02.886Z,99787.28
2017-12-22T17:43:30.350Z,99786.34
2017-12-22T17:45:58.402Z,99783.01
2017-12-22T17:48:25.857Z,99791.25
2017-12-22T17:50:53.314Z,99794.66
2017-12-22T17:53:22.021Z,99797.92
2017-12-22T17:55:49.476Z,99812.87
2017-12-22T17:58:16.937Z,99799.21
2017-12-22T18:00:44.721Z,99798.77
2017-12-22T18:03:12.180Z,99789.34
2017-12-22T18:05:39.977Z,99796.34
2017-12-22T18:08:08.006Z,99791.19
2017-12-22T18:10:35.685Z,99789.98
2017-12-22T18:13:03.224Z,99791.12
2017-12-22T18:15:31.003Z,99794.90
2017-12-22T18:17:58.471Z,99802.22
2017-12-22T18:20:25.922Z,99794.05
2017-12-22T18:22:53.698Z,99798.91
2017-12-22T18:25:21.158Z,99800.94
2017-12-22T18:27:48.650Z,99810.36
2017-12-22T18:30:16.692Z,99809.55
2017-12-22T18:32:44.437Z,99814.33
2017-12-22T18:35:11.890Z,99817.32
2017-12-22T18:37:39.681Z,99818.31
2017-12-22T18:40:07.144Z,99819.23
2017-12-22T18:42:34.636Z,99820.06
2017-12-22T18:45:02.432Z,99822.67
2017-12-22T18:47:29.850Z,99833.47
2017-12-22T18:49:57.551Z,99831.09
2017-12-22T18:52:25.381Z,99829.31
2017-12-22T18:54:53.210Z,99841.70
2017-12-22T18:57:20.681Z,99837.69
2017-12-22T18:59:48.661Z,99846.44
2017-12-22T19:02:16.121Z,99846.05
2017-12-22T19:04:43.665Z,99834.39
2017-12-22T19:07:11.651Z,99840.84
2017-12-22T19:09:39.118Z,99854.92
2017-12-22T19:12:06.576Z,99848.97
2017-12-22T19:14:34.335Z,99844.68
2017-12-22T19:17:01.802Z,99851.77
2017-12-22T19:19:29.271Z,99864.87
2017-12-22T19:21:57.342Z,99872.94
2017-12-22T19:24:24.796Z,99869.08
2017-12-22T19:26:52.262Z,99870.25
2017-12-22T19:29:19.899Z,99870.34
2017-12-22T19:31:47.354Z,99874.97
2017-12-22T19:34:14.817Z,99882.42
2017-12-22T19:36:42.701Z,99884.91
2017-12-22T19:39:10.189Z,99884.42
2017-12-22T19:41:37.642Z,99887.91
2017-12-22T19:44:05.398Z,99895.50
2017-12-22T19:46:32.869Z,99897.89
2017-12-22T19:49:00.338Z,99898.69
2017-12-22T19:51:28.075Z,99898.20
2017-12-22T19:53:55.528Z,99892.92
2017-12-22T19:56:23.329Z,99899.80
2017-12-22T19:58:51.081Z,99900.31
2017-12-22T20:01:18.538Z,99907.19
2017-12-22T20:03:46.007Z,99904.21
2017-12-22T20:06:13.764Z,99897.62
2017-12-22T20:08:41.228Z,99901.37
2017-12-22T20:11:08.696Z,99900.72
2017-12-22T20:13:36.748Z,99899.25
2017-12-22T20:16:04.214Z,99895.81
2017-12-22T20:18:31.678Z,99907.27
2017-12-22T20:20:59.445Z,99901.81
2017-12-22T20:23:26.897Z,99903.99
2017-12-22T20:25:54.357Z,99908.61
2017-12-22T20:28:22.156Z,99909.20
2017-12-22T20:30:49.613Z,99913.81
2017-12-22T20:33:17.065Z,99907.70
2017-12-22T20:35:44.814Z,99914.55
2017-12-22T20:38:12.262Z,99914.10
2017-12-22T20:40:39.722Z,99911.50
2017-12-22T20:43:07.305Z,99915.91
2017-12-22T20:45:34.773Z,99922.06
2017-12-22T20:48:02.233Z,99920.33
2017-12-22T20:50:30.192Z,99923.28
2017-12-22T20:52:57.655Z,99932.48
2017-12-22T20:55:25.159Z,99925.03
2017-12-22T20:57:53.512Z,99924.10
2017-12-22T21:00:20.965Z,99921.88
2017-12-22T21:02:48.425Z,99921.98
2017-12-22T21:05:16.186Z,99923.34
2017-12-22T21:07:43.642Z,99927.58
2017-12-22T21:10:11.109Z,99931.92
2017-12-22T21:12:38.847Z,99939.48
2017-12-22T21:15:06.306Z,99934.46
2017-12-22T21:17:33.777Z,99932.67
2017-12-22T21:20:01.617Z,99919.20
2017-12-22T21:22:29.087Z,99927.08
2017-12-22T21:24:56.541Z,99935.36
2017-12-22T21:27:24.247Z,99932.06
2017-12-22T21:29:51.925Z,99931.27
2017-12-22T21:32:19.372Z,99940.00
2017-12-22T21:34:47.547Z,99940.38
2017-12-22T21:37:15.005Z,99943.86
2017-12-22T21:39:42.460Z,99947.86
2017-12-22T21:42:11.154Z,99952.75
2017-12-22T21:44:38.621Z,99954.17
2017-12-22T21:47:06.096Z,99948.33
2017-12-22T21:49:33.843Z,99948.41
2017-12-22T21:52:01.315Z,99950.92
2017-12-22T21:54:28.785Z,99958.11
2017-12-22T21:56:56.832Z,99954.99
2017-12-22T21:59:24.686Z,99962.87
2017-12-22T22:01:52.141Z,99961.31
2017-12-22T22:04:20.132Z,99965.25
2017-12-22T22:06:47.583Z,99969.55
2017-12-22T22:09:15.031Z,99961.22
2017-12-22T22:11:43.049Z,99969.42
2017-12-22T22:14:10.503Z,99964.76
2017-12-22T22:16:37.953Z,99958.95
2017-12-22T22:19:06.003Z,99960.85
2017-12-22T22:21:33.460Z,99953.16
2017-12-22T22:24:00.923Z,99944.36
2017-12-22T22:26:28.812Z,99941.36
2017-12-22T22:28:56.321Z,99939.48
2017-12-22T22:31:23.777Z,99941.38
2017-12-22T22:33:51.807Z,99934.91
2017-12-22T22:36:19.271Z,99930.95
2017-12-22T22:38:46.728Z,99928.13
2017-12-22T22:41:14.490Z,99935.13
2017-12-22T22:43:41.962Z,99933.79
2017-12-22T22:46:09.518Z,99934.76
2017-12-22T22:48:37.175Z,99937.45
2017-12-22T22:51:04.641Z,99934.43
2017-12-22T22:53:32.105Z,99941.42
2017-12-22T22:55:59.826Z,99941.66
2017-12-22T22:58:27.293Z,99940.49
2017-12-22T23:00:55.385Z,99946.58
2017-12-22T23:03:23.180Z,99948.41
2017-12-22T23:05:50.631Z,99954.49
2017-12-22T23:08:18.090Z,99954.00
2017-12-22T23:10:45.857Z,99964.56
2017-12-22T23:13:13.321Z,99964.38
2017-12-22T23:15:40.778Z,99955.27
2017-12-22T23:18:09.238Z,99959.50
2017-12-22T23:20:36.693Z,99968.14
2017-12-22T23:23:04.150Z,99959.22
2017-12-22T23:25:31.836Z,99965.44
2017-12-22T23:27:59.294Z,99958.97
2017-12-22T23:30:26.749Z,99953.73
2017-12-22T23:32:54.527Z,99952.07
2017-12-22T23:35:21.985Z,99958.30
2017-12-22T23:37:49.483Z,99956.81
2017-12-22T23:40:17.214Z,99959.74
2017-12-22T23:42:44.665Z,99958.88
2017-12-22T23:45:12.125Z,99954.10
2017-12-22T23:47:39.905Z,99955.45
2017-12-22T23:50:07.359Z,99951.36
2017-12-22T23:52:34.821Z,99949.18
2017-12-22T23:55:02.592Z,99951.30
2017-12-22T23:57:30.053Z,99951.16
2017-12-22T23:59:57.514Z,99959.12
